sensor_id;sensor_type;location;lat;lon;timestamp;temperature;humidity
38910;DHT22;24676;51.360;12.354;2023-03-14T00:00:48;10.40;99.90
38910;DHT22;24676;51.360;12.354;2023-03-14T00:03:32;10.40;99.90
38910;DHT22;24676;51.360;12.354;2023-03-14T00:06:17;10.40;99.90
38910;DHT22;24676;51.360;12.354;2023-03-14T00:09:02;10.40;99.90
38910;DHT22;24676;51.360;12.354;2023-03-14T00:11:46;10.40;99.90
38910;DHT22;24676;51.360;12.354;2023-03-14T00:14:31;10.40;99.90
38910;DHT22;24676;51.360;12.354;2023-03-14T00:17:15;10.50;99.90
38910;DHT22;24676;51.360;12.354;2023-03-14T00:20:00;10.40;99.90
38910;DHT22;24676;51.360;12.354;2023-03-14T00:22:48;10.40;99.90
38910;DHT22;24676;51.360;12.354;2023-03-14T00:25:32;10.40;99.90
38910;DHT22;24676;51.360;12.354;2023-03-14T00:28:16;10.40;99.90
38910;DHT22;24676;51.360;12.354;2023-03-14T00:31:08;10.40;99.90
38910;DHT22;24676;51.360;12.354;2023-03-14T00:33:53;10.40;99.90
38910;DHT22;24676;51.360;12.354;2023-03-14T00:36:37;10.30;99.90
38910;DHT22;24676;51.360;12.354;2023-03-14T00:39:21;10.30;99.90
38910;DHT22;24676;51.360;12.354;2023-03-14T00:42:06;10.30;99.90
38910;DHT22;24676;51.360;12.354;2023-03-14T00:44:50;10.40;99.90
38910;DHT22;24676;51.360;12.354;2023-03-14T00:47:34;10.40;99.90
38910;DHT22;24676;51.360;12.354;2023-03-14T00:50:18;10.40;99.90
38910;DHT22;24676;51.360;12.354;2023-03-14T00:53:03;10.40;99.90
38910;DHT22;24676;51.360;12.354;2023-03-14T00:55:47;10.40;99.90
38910;DHT22;24676;51.360;12.354;2023-03-14T00:58:31;10.40;99.90
38910;DHT22;24676;51.360;12.354;2023-03-14T01:01:18;10.40;99.90
38910;DHT22;24676;51.360;12.354;2023-03-14T01:04:02;10.40;99.90
38910;DHT22;24676;51.360;12.354;2023-03-14T01:06:46;10.40;99.90
38910;DHT22;24676;51.360;12.354;2023-03-14T01:09:31;10.30;99.90
38910;DHT22;24676;51.360;12.354;2023-03-14T01:12:15;10.40;99.90
38910;DHT22;24676;51.360;12.354;2023-03-14T01:14:59;10.40;99.90
38910;DHT22;24676;51.360;12.354;2023-03-14T01:17:43;10.30;99.90
38910;DHT22;24676;51.360;12.354;2023-03-14T01:20:28;10.30;99.90
38910;DHT22;24676;51.360;12.354;2023-03-14T01:23:12;10.40;99.90
38910;DHT22;24676;51.360;12.354;2023-03-14T01:25:56;10.40;99.90
38910;DHT22;24676;51.360;12.354;2023-03-14T01:28:41;10.40;99.90
38910;DHT22;24676;51.360;12.354;2023-03-14T01:31:26;10.50;99.90
38910;DHT22;24676;51.360;12.354;2023-03-14T01:34:11;10.50;99.90
38910;DHT22;24676;51.360;12.354;2023-03-14T01:36:55;10.50;99.90
38910;DHT22;24676;51.360;12.354;2023-03-14T01:39:40;10.60;99.90
38910;DHT22;24676;51.360;12.354;2023-03-14T01:42:24;10.60;99.90
38910;DHT22;24676;51.360;12.354;2023-03-14T01:48:32;10.80;99.90
38910;DHT22;24676;51.360;12.354;2023-03-14T01:51:34;10.80;99.90
38910;DHT22;24676;51.360;12.354;2023-03-14T01:54:33;10.80;99.90
38910;DHT22;24676;51.360;12.354;2023-03-14T01:57:30;10.80;99.90
38910;DHT22;24676;51.360;12.354;2023-03-14T02:00:18;10.90;99.90
38910;DHT22;24676;51.360;12.354;2023-03-14T02:03:14;10.80;99.90
38910;DHT22;24676;51.360;12.354;2023-03-14T02:06:04;10.80;99.90
38910;DHT22;24676;51.360;12.354;2023-03-14T02:08:51;10.80;99.90
38910;DHT22;24676;51.360;12.354;2023-03-14T02:11:35;10.90;99.90
38910;DHT22;24676;51.360;12.354;2023-03-14T02:14:27;10.80;99.90
38910;DHT22;24676;51.360;12.354;2023-03-14T02:17:13;10.80;99.90
38910;DHT22;24676;51.360;12.354;2023-03-14T02:22:49;10.80;99.90
38910;DHT22;24676;51.360;12.354;2023-03-14T02:28:18;10.80;99.90
38910;DHT22;24676;51.360;12.354;2023-03-14T02:31:02;10.80;99.90
38910;DHT22;24676;51.360;12.354;2023-03-14T02:33:47;10.80;99.90
38910;DHT22;24676;51.360;12.354;2023-03-14T02:36:32;10.80;99.90
38910;DHT22;24676;51.360;12.354;2023-03-14T02:39:24;10.80;99.90
38910;DHT22;24676;51.360;12.354;2023-03-14T02:42:12;10.80;99.90
38910;DHT22;24676;51.360;12.354;2023-03-14T02:48:26;10.70;99.90
38910;DHT22;24676;51.360;12.354;2023-03-14T02:51:12;10.70;99.90
38910;DHT22;24676;51.360;12.354;2023-03-14T02:53:57;10.70;99.90
38910;DHT22;24676;51.360;12.354;2023-03-14T02:56:45;10.70;99.90
38910;DHT22;24676;51.360;12.354;2023-03-14T02:59:29;10.70;99.90
38910;DHT22;24676;51.360;12.354;2023-03-14T03:02:13;10.60;99.90
38910;DHT22;24676;51.360;12.354;2023-03-14T03:04:57;10.60;99.90
38910;DHT22;24676;51.360;12.354;2023-03-14T03:07:42;10.60;99.90
38910;DHT22;24676;51.360;12.354;2023-03-14T03:10:27;10.60;99.90
38910;DHT22;24676;51.360;12.354;2023-03-14T03:13:12;10.70;99.90
38910;DHT22;24676;51.360;12.354;2023-03-14T03:15:56;10.60;99.90
38910;DHT22;24676;51.360;12.354;2023-03-14T03:18:40;10.70;99.90
38910;DHT22;24676;51.360;12.354;2023-03-14T03:21:24;10.80;99.90
38910;DHT22;24676;51.360;12.354;2023-03-14T03:24:09;10.80;99.90
38910;DHT22;24676;51.360;12.354;2023-03-14T03:26:54;10.90;99.90
38910;DHT22;24676;51.360;12.354;2023-03-14T03:29:38;10.90;99.90
38910;DHT22;24676;51.360;12.354;2023-03-14T03:32:22;10.90;99.90
38910;DHT22;24676;51.360;12.354;2023-03-14T03:35:06;11.00;99.90
38910;DHT22;24676;51.360;12.354;2023-03-14T03:37:50;11.00;99.90
38910;DHT22;24676;51.360;12.354;2023-03-14T03:40:34;11.00;99.90
38910;DHT22;24676;51.360;12.354;2023-03-14T03:43:19;11.00;99.90
38910;DHT22;24676;51.360;12.354;2023-03-14T03:46:04;11.10;99.90
38910;DHT22;24676;51.360;12.354;2023-03-14T03:48:54;11.20;99.90
38910;DHT22;24676;51.360;12.354;2023-03-14T03:51:40;11.20;99.90
38910;DHT22;24676;51.360;12.354;2023-03-14T03:54:25;11.20;99.90
38910;DHT22;24676;51.360;12.354;2023-03-14T03:57:09;11.10;99.90
38910;DHT22;24676;51.360;12.354;2023-03-14T03:59:54;11.10;99.90
38910;DHT22;24676;51.360;12.354;2023-03-14T04:02:38;11.10;99.90
38910;DHT22;24676;51.360;12.354;2023-03-14T04:05:22;11.00;99.90
38910;DHT22;24676;51.360;12.354;2023-03-14T04:08:07;10.90;99.90
38910;DHT22;24676;51.360;12.354;2023-03-14T04:10:57;10.90;99.90
38910;DHT22;24676;51.360;12.354;2023-03-14T04:13:41;10.90;99.90
38910;DHT22;24676;51.360;12.354;2023-03-14T04:16:26;10.80;99.90
38910;DHT22;24676;51.360;12.354;2023-03-14T04:19:11;10.80;99.90
38910;DHT22;24676;51.360;12.354;2023-03-14T04:21:55;10.90;99.90
38910;DHT22;24676;51.360;12.354;2023-03-14T04:24:39;10.90;99.90
38910;DHT22;24676;51.360;12.354;2023-03-14T04:27:23;10.80;99.90
38910;DHT22;24676;51.360;12.354;2023-03-14T04:30:08;10.90;99.90
38910;DHT22;24676;51.360;12.354;2023-03-14T04:32:52;10.90;99.90
38910;DHT22;24676;51.360;12.354;2023-03-14T04:35:37;10.90;99.90
38910;DHT22;24676;51.360;12.354;2023-03-14T04:38:21;10.90;99.90
38910;DHT22;24676;51.360;12.354;2023-03-14T04:41:06;10.90;99.90
38910;DHT22;24676;51.360;12.354;2023-03-14T04:43:50;10.80;99.90
38910;DHT22;24676;51.360;12.354;2023-03-14T04:46:35;10.80;99.90
38910;DHT22;24676;51.360;12.354;2023-03-14T04:49:19;10.80;99.90
38910;DHT22;24676;51.360;12.354;2023-03-14T04:52:03;10.80;99.90
38910;DHT22;24676;51.360;12.354;2023-03-14T04:54:48;10.80;99.90
38910;DHT22;24676;51.360;12.354;2023-03-14T04:57:32;10.80;99.90
38910;DHT22;24676;51.360;12.354;2023-03-14T05:00:17;10.80;99.90
38910;DHT22;24676;51.360;12.354;2023-03-14T05:03:04;10.80;99.90
38910;DHT22;24676;51.360;12.354;2023-03-14T05:05:48;10.70;99.90
38910;DHT22;24676;51.360;12.354;2023-03-14T05:08:32;10.70;99.90
38910;DHT22;24676;51.360;12.354;2023-03-14T05:11:16;10.80;99.90
38910;DHT22;24676;51.360;12.354;2023-03-14T05:14:02;10.70;99.90
38910;DHT22;24676;51.360;12.354;2023-03-14T05:16:46;10.60;99.90
38910;DHT22;24676;51.360;12.354;2023-03-14T05:19:31;10.60;99.90
38910;DHT22;24676;51.360;12.354;2023-03-14T05:22:15;10.60;99.90
38910;DHT22;24676;51.360;12.354;2023-03-14T05:24:59;10.60;99.90
38910;DHT22;24676;51.360;12.354;2023-03-14T05:27:44;10.50;99.90
38910;DHT22;24676;51.360;12.354;2023-03-14T05:30:28;10.50;99.90
38910;DHT22;24676;51.360;12.354;2023-03-14T05:33:12;10.50;99.90
38910;DHT22;24676;51.360;12.354;2023-03-14T05:35:56;10.40;99.90
38910;DHT22;24676;51.360;12.354;2023-03-14T05:38:40;10.30;99.90
38910;DHT22;24676;51.360;12.354;2023-03-14T05:41:24;10.30;99.90
38910;DHT22;24676;51.360;12.354;2023-03-14T05:44:09;10.30;99.90
38910;DHT22;24676;51.360;12.354;2023-03-14T05:46:52;10.30;99.90
38910;DHT22;24676;51.360;12.354;2023-03-14T05:49:37;10.40;99.90
38910;DHT22;24676;51.360;12.354;2023-03-14T05:52:22;10.40;99.90
38910;DHT22;24676;51.360;12.354;2023-03-14T05:55:06;10.40;99.90
38910;DHT22;24676;51.360;12.354;2023-03-14T05:57:52;10.50;99.90
38910;DHT22;24676;51.360;12.354;2023-03-14T06:00:36;10.70;99.90
38910;DHT22;24676;51.360;12.354;2023-03-14T06:03:21;10.70;99.90
38910;DHT22;24676;51.360;12.354;2023-03-14T06:06:05;10.70;99.90
38910;DHT22;24676;51.360;12.354;2023-03-14T06:08:49;10.80;99.90
38910;DHT22;24676;51.360;12.354;2023-03-14T06:11:34;10.80;99.90
38910;DHT22;24676;51.360;12.354;2023-03-14T06:14:18;11.00;99.90
38910;DHT22;24676;51.360;12.354;2023-03-14T06:17:02;11.00;99.90
38910;DHT22;24676;51.360;12.354;2023-03-14T06:19:47;11.10;99.90
38910;DHT22;24676;51.360;12.354;2023-03-14T06:22:31;11.20;99.90
38910;DHT22;24676;51.360;12.354;2023-03-14T06:25:15;11.20;99.90
38910;DHT22;24676;51.360;12.354;2023-03-14T06:28:00;11.20;99.90
38910;DHT22;24676;51.360;12.354;2023-03-14T06:30:44;11.20;99.90
38910;DHT22;24676;51.360;12.354;2023-03-14T06:33:29;11.20;99.90
38910;DHT22;24676;51.360;12.354;2023-03-14T06:36:13;11.20;99.90
38910;DHT22;24676;51.360;12.354;2023-03-14T06:38:57;11.10;99.90
38910;DHT22;24676;51.360;12.354;2023-03-14T06:41:41;11.10;99.90
38910;DHT22;24676;51.360;12.354;2023-03-14T06:44:25;11.00;99.90
38910;DHT22;24676;51.360;12.354;2023-03-14T06:47:09;11.10;99.90
38910;DHT22;24676;51.360;12.354;2023-03-14T06:49:53;11.10;99.90
38910;DHT22;24676;51.360;12.354;2023-03-14T06:52:37;11.20;99.90
38910;DHT22;24676;51.360;12.354;2023-03-14T06:55:25;11.20;99.90
38910;DHT22;24676;51.360;12.354;2023-03-14T06:58:10;11.30;99.90
38910;DHT22;24676;51.360;12.354;2023-03-14T07:00:54;11.40;99.90
38910;DHT22;24676;51.360;12.354;2023-03-14T07:03:38;11.40;99.90
38910;DHT22;24676;51.360;12.354;2023-03-14T07:06:22;11.50;99.90
38910;DHT22;24676;51.360;12.354;2023-03-14T07:09:06;11.60;99.90
38910;DHT22;24676;51.360;12.354;2023-03-14T07:11:51;11.60;99.90
38910;DHT22;24676;51.360;12.354;2023-03-14T07:14:35;11.70;99.90
38910;DHT22;24676;51.360;12.354;2023-03-14T07:17:20;11.90;99.90
38910;DHT22;24676;51.360;12.354;2023-03-14T07:20:05;12.10;99.90
38910;DHT22;24676;51.360;12.354;2023-03-14T07:22:50;12.30;99.90
38910;DHT22;24676;51.360;12.354;2023-03-14T07:25:35;12.50;99.90
38910;DHT22;24676;51.360;12.354;2023-03-14T07:28:19;12.60;99.90
38910;DHT22;24676;51.360;12.354;2023-03-14T07:31:03;12.70;99.90
38910;DHT22;24676;51.360;12.354;2023-03-14T07:33:48;12.70;99.90
38910;DHT22;24676;51.360;12.354;2023-03-14T07:36:32;12.80;99.90
38910;DHT22;24676;51.360;12.354;2023-03-14T07:39:17;12.90;99.90
38910;DHT22;24676;51.360;12.354;2023-03-14T07:42:01;13.10;99.90
38910;DHT22;24676;51.360;12.354;2023-03-14T07:44:46;13.20;99.90
38910;DHT22;24676;51.360;12.354;2023-03-14T07:47:30;13.30;99.90
38910;DHT22;24676;51.360;12.354;2023-03-14T07:50:15;13.60;99.90
38910;DHT22;24676;51.360;12.354;2023-03-14T07:53:00;14.00;99.90
38910;DHT22;24676;51.360;12.354;2023-03-14T07:55:45;14.10;99.90
38910;DHT22;24676;51.360;12.354;2023-03-14T07:58:29;14.10;99.90
38910;DHT22;24676;51.360;12.354;2023-03-14T08:01:13;15.40;99.90
38910;DHT22;24676;51.360;12.354;2023-03-14T08:03:58;15.50;92.80
38910;DHT22;24676;51.360;12.354;2023-03-14T08:06:42;15.20;95.20
38910;DHT22;24676;51.360;12.354;2023-03-14T08:09:27;15.10;95.10
38910;DHT22;24676;51.360;12.354;2023-03-14T08:12:11;15.00;97.10
38910;DHT22;24676;51.360;12.354;2023-03-14T08:14:56;14.80;98.70
38910;DHT22;24676;51.360;12.354;2023-03-14T08:17:40;14.40;99.90
38910;DHT22;24676;51.360;12.354;2023-03-14T08:20:27;14.90;99.90
38910;DHT22;24676;51.360;12.354;2023-03-14T08:23:12;16.90;87.50
38910;DHT22;24676;51.360;12.354;2023-03-14T08:25:56;17.30;73.60
38910;DHT22;24676;51.360;12.354;2023-03-14T08:28:40;16.10;81.50
38910;DHT22;24676;51.360;12.354;2023-03-14T08:31:25;15.20;93.30
38910;DHT22;24676;51.360;12.354;2023-03-14T08:34:09;14.80;98.30
38910;DHT22;24676;51.360;12.354;2023-03-14T08:36:53;14.70;99.50
38910;DHT22;24676;51.360;12.354;2023-03-14T08:39:40;14.90;99.90
38910;DHT22;24676;51.360;12.354;2023-03-14T08:42:26;14.70;99.30
38910;DHT22;24676;51.360;12.354;2023-03-14T08:45:13;14.80;98.40
38910;DHT22;24676;51.360;12.354;2023-03-14T08:47:58;14.60;99.40
38910;DHT22;24676;51.360;12.354;2023-03-14T08:50:43;14.50;99.90
38910;DHT22;24676;51.360;12.354;2023-03-14T08:53:27;14.50;99.90
38910;DHT22;24676;51.360;12.354;2023-03-14T08:56:11;14.70;99.90
38910;DHT22;24676;51.360;12.354;2023-03-14T08:58:56;15.00;99.90
38910;DHT22;24676;51.360;12.354;2023-03-14T09:01:40;15.20;96.70
38910;DHT22;24676;51.360;12.354;2023-03-14T09:04:24;15.20;95.00
38910;DHT22;24676;51.360;12.354;2023-03-14T09:07:08;15.00;98.50
38910;DHT22;24676;51.360;12.354;2023-03-14T09:09:52;14.90;95.20
38910;DHT22;24676;51.360;12.354;2023-03-14T09:12:36;14.90;96.30
38910;DHT22;24676;51.360;12.354;2023-03-14T09:15:21;14.80;97.10
38910;DHT22;24676;51.360;12.354;2023-03-14T09:18:05;14.70;98.70
38910;DHT22;24676;51.360;12.354;2023-03-14T09:20:50;14.50;98.60
38910;DHT22;24676;51.360;12.354;2023-03-14T09:23:34;14.50;99.90
38910;DHT22;24676;51.360;12.354;2023-03-14T09:26:19;14.60;99.90
38910;DHT22;24676;51.360;12.354;2023-03-14T09:29:03;14.60;99.90
38910;DHT22;24676;51.360;12.354;2023-03-14T09:31:47;14.60;99.90
38910;DHT22;24676;51.360;12.354;2023-03-14T09:34:31;14.50;99.20
38910;DHT22;24676;51.360;12.354;2023-03-14T09:37:15;14.30;99.90
38910;DHT22;24676;51.360;12.354;2023-03-14T09:40:00;14.40;99.90
38910;DHT22;24676;51.360;12.354;2023-03-14T09:42:44;14.40;99.90
38910;DHT22;24676;51.360;12.354;2023-03-14T09:45:36;14.30;99.90
38910;DHT22;24676;51.360;12.354;2023-03-14T09:48:27;14.50;99.90
38910;DHT22;24676;51.360;12.354;2023-03-14T09:51:15;14.40;99.90
38910;DHT22;24676;51.360;12.354;2023-03-14T09:54:00;14.50;99.90
38910;DHT22;24676;51.360;12.354;2023-03-14T09:56:45;14.40;99.90
38910;DHT22;24676;51.360;12.354;2023-03-14T09:59:30;14.30;99.90
38910;DHT22;24676;51.360;12.354;2023-03-14T10:05:01;14.20;99.90
38910;DHT22;24676;51.360;12.354;2023-03-14T10:07:49;14.20;99.90
38910;DHT22;24676;51.360;12.354;2023-03-14T10:10:33;14.10;99.90
38910;DHT22;24676;51.360;12.354;2023-03-14T10:13:24;14.00;99.90
38910;DHT22;24676;51.360;12.354;2023-03-14T10:16:09;13.90;99.90
38910;DHT22;24676;51.360;12.354;2023-03-14T10:19:01;13.80;99.90
38910;DHT22;24676;51.360;12.354;2023-03-14T10:21:52;13.70;99.90
38910;DHT22;24676;51.360;12.354;2023-03-14T10:24:37;13.70;99.90
38910;DHT22;24676;51.360;12.354;2023-03-14T10:27:32;13.60;99.90
38910;DHT22;24676;51.360;12.354;2023-03-14T10:33:28;13.60;99.90
38910;DHT22;24676;51.360;12.354;2023-03-14T10:42:24;13.90;99.90
38910;DHT22;24676;51.360;12.354;2023-03-14T10:45:39;14.00;99.90
38910;DHT22;24676;51.360;12.354;2023-03-14T10:48:35;14.20;99.90
38910;DHT22;24676;51.360;12.354;2023-03-14T10:51:27;14.30;99.90
38910;DHT22;24676;51.360;12.354;2023-03-14T10:54:21;14.30;99.90
38910;DHT22;24676;51.360;12.354;2023-03-14T10:57:06;14.10;99.90
38910;DHT22;24676;51.360;12.354;2023-03-14T10:59:51;14.00;99.90
38910;DHT22;24676;51.360;12.354;2023-03-14T11:05:43;13.80;99.90
38910;DHT22;24676;51.360;12.354;2023-03-14T11:11:29;13.70;99.90
38910;DHT22;24676;51.360;12.354;2023-03-14T11:17:19;13.50;99.90
38910;DHT22;24676;51.360;12.354;2023-03-14T11:23:16;13.70;99.90
38910;DHT22;24676;51.360;12.354;2023-03-14T11:28:58;14.10;99.90
38910;DHT22;24676;51.360;12.354;2023-03-14T11:31:46;14.20;99.90
38910;DHT22;24676;51.360;12.354;2023-03-14T11:34:52;14.40;99.90
38910;DHT22;24676;51.360;12.354;2023-03-14T11:37:42;14.50;99.90
38910;DHT22;24676;51.360;12.354;2023-03-14T11:40:29;14.50;99.90
38910;DHT22;24676;51.360;12.354;2023-03-14T11:43:20;14.60;99.90
38910;DHT22;24676;51.360;12.354;2023-03-14T11:49:14;14.50;99.90
38910;DHT22;24676;51.360;12.354;2023-03-14T11:52:05;14.40;99.90
38910;DHT22;24676;51.360;12.354;2023-03-14T12:01:09;14.90;99.90
38910;DHT22;24676;51.360;12.354;2023-03-14T12:04:02;15.00;99.90
38910;DHT22;24676;51.360;12.354;2023-03-14T12:06:49;14.90;99.90
38910;DHT22;24676;51.360;12.354;2023-03-14T12:09:34;14.70;99.90
38910;DHT22;24676;51.360;12.354;2023-03-14T12:12:22;14.60;99.90
38910;DHT22;24676;51.360;12.354;2023-03-14T12:15:18;14.60;99.90
38910;DHT22;24676;51.360;12.354;2023-03-14T12:18:03;14.60;99.90
38910;DHT22;24676;51.360;12.354;2023-03-14T12:20:53;14.60;99.90
38910;DHT22;24676;51.360;12.354;2023-03-14T12:23:55;14.80;99.90
38910;DHT22;24676;51.360;12.354;2023-03-14T12:26:45;14.80;99.90
38910;DHT22;24676;51.360;12.354;2023-03-14T12:29:31;14.60;99.90
38910;DHT22;24676;51.360;12.354;2023-03-14T12:32:23;14.10;99.90
38910;DHT22;24676;51.360;12.354;2023-03-14T12:41:35;13.70;99.90
38910;DHT22;24676;51.360;12.354;2023-03-14T12:50:25;14.50;99.90
38910;DHT22;24676;51.360;12.354;2023-03-14T12:53:37;14.50;99.90
38910;DHT22;24676;51.360;12.354;2023-03-14T12:56:38;14.50;99.90
38910;DHT22;24676;51.360;12.354;2023-03-14T12:59:35;14.50;99.90
38910;DHT22;24676;51.360;12.354;2023-03-14T13:05:20;14.30;99.90
38910;DHT22;24676;51.360;12.354;2023-03-14T13:08:06;14.10;99.90
38910;DHT22;24676;51.360;12.354;2023-03-14T13:10:53;14.20;99.90
38910;DHT22;24676;51.360;12.354;2023-03-14T13:13:52;14.30;99.90
38910;DHT22;24676;51.360;12.354;2023-03-14T13:16:39;14.50;99.90
38910;DHT22;24676;51.360;12.354;2023-03-14T13:19:26;14.60;99.90
38910;DHT22;24676;51.360;12.354;2023-03-14T13:22:24;14.80;99.90
38910;DHT22;24676;51.360;12.354;2023-03-14T13:25:10;15.10;99.90
38910;DHT22;24676;51.360;12.354;2023-03-14T13:27:54;15.40;99.90
38910;DHT22;24676;51.360;12.354;2023-03-14T13:30:40;15.30;98.80
38910;DHT22;24676;51.360;12.354;2023-03-14T13:33:24;15.20;98.90
38910;DHT22;24676;51.360;12.354;2023-03-14T13:36:09;15.30;98.70
38910;DHT22;24676;51.360;12.354;2023-03-14T13:38:57;15.60;95.40
38910;DHT22;24676;51.360;12.354;2023-03-14T13:41:41;15.70;95.00
38910;DHT22;24676;51.360;12.354;2023-03-14T13:44:38;15.80;93.60
38910;DHT22;24676;51.360;12.354;2023-03-14T13:47:23;15.80;94.30
38910;DHT22;24676;51.360;12.354;2023-03-14T13:50:17;15.70;92.80
38910;DHT22;24676;51.360;12.354;2023-03-14T13:53:02;15.50;92.10
38910;DHT22;24676;51.360;12.354;2023-03-14T13:55:46;15.50;93.70
38910;DHT22;24676;51.360;12.354;2023-03-14T13:58:31;15.30;91.50
38910;DHT22;24676;51.360;12.354;2023-03-14T14:04:08;15.40;94.20
38910;DHT22;24676;51.360;12.354;2023-03-14T14:06:58;15.60;93.40
38910;DHT22;24676;51.360;12.354;2023-03-14T14:09:50;15.50;92.00
38910;DHT22;24676;51.360;12.354;2023-03-14T14:12:42;15.50;90.10
38910;DHT22;24676;51.360;12.354;2023-03-14T14:15:37;15.30;91.90
38910;DHT22;24676;51.360;12.354;2023-03-14T14:18:24;15.00;92.60
38910;DHT22;24676;51.360;12.354;2023-03-14T14:21:09;14.70;94.70
38910;DHT22;24676;51.360;12.354;2023-03-14T14:23:57;14.60;96.00
38910;DHT22;24676;51.360;12.354;2023-03-14T14:26:47;14.60;96.80
38910;DHT22;24676;51.360;12.354;2023-03-14T14:29:33;14.60;97.00
38910;DHT22;24676;51.360;12.354;2023-03-14T14:32:18;14.60;98.40
38910;DHT22;24676;51.360;12.354;2023-03-14T14:35:02;14.60;97.60
38910;DHT22;24676;51.360;12.354;2023-03-14T14:37:48;14.60;96.90
38910;DHT22;24676;51.360;12.354;2023-03-14T14:40:32;14.60;99.30
38910;DHT22;24676;51.360;12.354;2023-03-14T14:43:20;14.60;99.90
38910;DHT22;24676;51.360;12.354;2023-03-14T14:46:07;14.50;98.20
38910;DHT22;24676;51.360;12.354;2023-03-14T14:48:56;14.50;99.10
38910;DHT22;24676;51.360;12.354;2023-03-14T14:51:44;14.50;99.90
38910;DHT22;24676;51.360;12.354;2023-03-14T14:54:38;14.30;99.90
38910;DHT22;24676;51.360;12.354;2023-03-14T14:57:37;14.20;99.90
38910;DHT22;24676;51.360;12.354;2023-03-14T15:00:26;13.90;99.90
38910;DHT22;24676;51.360;12.354;2023-03-14T15:03:14;13.50;99.90
38910;DHT22;24676;51.360;12.354;2023-03-14T15:05:59;13.00;99.90
38910;DHT22;24676;51.360;12.354;2023-03-14T15:08:46;12.50;99.90
38910;DHT22;24676;51.360;12.354;2023-03-14T15:11:31;12.10;99.90
38910;DHT22;24676;51.360;12.354;2023-03-14T15:14:15;11.80;99.90
38910;DHT22;24676;51.360;12.354;2023-03-14T15:17:00;11.00;99.90
38910;DHT22;24676;51.360;12.354;2023-03-14T15:19:44;10.10;99.90
38910;DHT22;24676;51.360;12.354;2023-03-14T15:22:29;9.40;99.90
38910;DHT22;24676;51.360;12.354;2023-03-14T15:25:13;8.80;99.90
38910;DHT22;24676;51.360;12.354;2023-03-14T15:27:58;8.40;99.90
38910;DHT22;24676;51.360;12.354;2023-03-14T15:30:42;8.00;99.90
38910;DHT22;24676;51.360;12.354;2023-03-14T15:33:27;7.90;99.90
38910;DHT22;24676;51.360;12.354;2023-03-14T15:39:00;7.40;99.90
38910;DHT22;24676;51.360;12.354;2023-03-14T15:41:44;7.10;99.90
38910;DHT22;24676;51.360;12.354;2023-03-14T15:44:28;6.90;99.90
38910;DHT22;24676;51.360;12.354;2023-03-14T15:47:13;6.70;99.90
38910;DHT22;24676;51.360;12.354;2023-03-14T15:49:57;6.60;99.90
38910;DHT22;24676;51.360;12.354;2023-03-14T15:52:42;6.50;99.90
38910;DHT22;24676;51.360;12.354;2023-03-14T15:55:27;6.30;99.90
38910;DHT22;24676;51.360;12.354;2023-03-14T15:58:17;6.20;99.90
38910;DHT22;24676;51.360;12.354;2023-03-14T16:01:02;6.10;99.90
38910;DHT22;24676;51.360;12.354;2023-03-14T16:03:46;5.90;99.90
38910;DHT22;24676;51.360;12.354;2023-03-14T16:06:33;5.80;99.90
38910;DHT22;24676;51.360;12.354;2023-03-14T16:09:19;5.60;99.90
38910;DHT22;24676;51.360;12.354;2023-03-14T16:12:05;5.60;99.90
38910;DHT22;24676;51.360;12.354;2023-03-14T16:14:51;5.50;99.90
38910;DHT22;24676;51.360;12.354;2023-03-14T16:17:36;5.50;99.90
38910;DHT22;24676;51.360;12.354;2023-03-14T16:20:22;5.40;99.90
38910;DHT22;24676;51.360;12.354;2023-03-14T16:23:07;5.30;99.90
38910;DHT22;24676;51.360;12.354;2023-03-14T16:25:51;5.20;99.90
38910;DHT22;24676;51.360;12.354;2023-03-14T16:28:36;5.20;99.90
38910;DHT22;24676;51.360;12.354;2023-03-14T16:31:20;5.10;99.90
38910;DHT22;24676;51.360;12.354;2023-03-14T16:34:06;5.10;99.90
38910;DHT22;24676;51.360;12.354;2023-03-14T16:36:50;5.00;99.90
38910;DHT22;24676;51.360;12.354;2023-03-14T16:39:35;4.90;99.90
38910;DHT22;24676;51.360;12.354;2023-03-14T16:42:19;4.80;99.90
38910;DHT22;24676;51.360;12.354;2023-03-14T16:45:04;4.80;99.90
38910;DHT22;24676;51.360;12.354;2023-03-14T16:47:48;4.70;99.90
38910;DHT22;24676;51.360;12.354;2023-03-14T16:50:32;4.60;99.90
38910;DHT22;24676;51.360;12.354;2023-03-14T16:53:17;4.40;99.90
38910;DHT22;24676;51.360;12.354;2023-03-14T16:56:01;4.40;99.90
38910;DHT22;24676;51.360;12.354;2023-03-14T16:58:45;4.20;99.90
38910;DHT22;24676;51.360;12.354;2023-03-14T17:01:30;4.10;99.90
38910;DHT22;24676;51.360;12.354;2023-03-14T17:04:14;4.00;99.90
38910;DHT22;24676;51.360;12.354;2023-03-14T17:06:58;4.00;99.90
38910;DHT22;24676;51.360;12.354;2023-03-14T17:09:42;4.00;99.90
38910;DHT22;24676;51.360;12.354;2023-03-14T17:12:27;4.00;99.90
38910;DHT22;24676;51.360;12.354;2023-03-14T17:15:14;3.90;99.90
38910;DHT22;24676;51.360;12.354;2023-03-14T17:17:59;3.90;99.90
38910;DHT22;24676;51.360;12.354;2023-03-14T17:20:43;4.00;99.90
38910;DHT22;24676;51.360;12.354;2023-03-14T17:23:29;4.00;99.90
38910;DHT22;24676;51.360;12.354;2023-03-14T17:26:15;4.00;99.90
38910;DHT22;24676;51.360;12.354;2023-03-14T17:29:01;4.00;99.90
38910;DHT22;24676;51.360;12.354;2023-03-14T17:31:45;4.00;99.90
38910;DHT22;24676;51.360;12.354;2023-03-14T17:34:29;4.00;99.90
38910;DHT22;24676;51.360;12.354;2023-03-14T17:37:14;4.00;99.90
38910;DHT22;24676;51.360;12.354;2023-03-14T17:39:58;4.00;99.90
38910;DHT22;24676;51.360;12.354;2023-03-14T17:42:44;4.00;99.90
38910;DHT22;24676;51.360;12.354;2023-03-14T17:45:28;4.00;99.90
38910;DHT22;24676;51.360;12.354;2023-03-14T17:48:13;4.10;99.90
38910;DHT22;24676;51.360;12.354;2023-03-14T17:50:57;4.10;99.90
38910;DHT22;24676;51.360;12.354;2023-03-14T17:53:42;4.10;99.90
38910;DHT22;24676;51.360;12.354;2023-03-14T17:56:26;4.10;99.90
38910;DHT22;24676;51.360;12.354;2023-03-14T17:59:11;4.10;99.90
38910;DHT22;24676;51.360;12.354;2023-03-14T18:01:56;4.10;99.90
38910;DHT22;24676;51.360;12.354;2023-03-14T18:04:40;4.10;99.90
38910;DHT22;24676;51.360;12.354;2023-03-14T18:07:25;4.10;99.90
38910;DHT22;24676;51.360;12.354;2023-03-14T18:10:10;4.10;99.90
38910;DHT22;24676;51.360;12.354;2023-03-14T18:12:56;4.10;99.90
38910;DHT22;24676;51.360;12.354;2023-03-14T18:15:40;4.10;99.90
38910;DHT22;24676;51.360;12.354;2023-03-14T18:18:24;4.10;99.90
38910;DHT22;24676;51.360;12.354;2023-03-14T18:21:08;4.10;99.90
38910;DHT22;24676;51.360;12.354;2023-03-14T18:23:54;4.00;99.90